Main page
METAR-TAF:

METAR-TAF

Airports :

Esbjerg Airport

Esbjerg, Denmark

latitude: 55-32N, longitude: 008-34E, elevation: 30 m

Current weather observation

The report was made 51 minutes ago, at 04:50 UTC
Wind 4 kt from the West/Southwest
Temperature 14°C
Humidity 100%
Pressure 1022 hPa
Visibility 10 km or more

METAR: EKEB 180450Z AUTO 24004KT 9999 BKN009/// 14/14 Q1022

Time: 07:41 (05:41 UTC)

Forecast

The report was made 36 minutes ago, at 05:05 UTC
Forecast valid from 18 at 06 UTC to 18 at 15 UTC
Wind 7 kt from the West
Visibility 10 km or more
Broken clouds at a height of 1500 ft
Temporary
from 18 at 06 UTC to 18 at 07 UTC
Broken clouds at a height of 800 ft
Temporary
from 18 at 07 UTC to 18 at 10 UTC
Broken clouds at a height of 1000 ft

TAF: EKEB 180505Z 1806/1815 26007KT 9999 BKN015 TEMPO 1806/1807 BKN008 TEMPO 1807/1810 BKN010

Weather observations and forecasts of more than 4000 airports (METAR and TAF reports).

The available stations are represented by yellow and red dots on the map.

Hover mouse over dot to see the name of the station.

Then click to see weather observations and forecasts.

To change the map : click on the green buttons with a black cross to zoom in, on the green button with a dash to zoom out, or on the green arrows for adjacent maps.


METAR-TAF: